createdAt,value
2022-12-23T00:00:15.132Z,111.60
2022-12-23T00:05:41.161Z,106.63
2022-12-23T00:11:06.743Z,122.85
2022-12-23T00:16:30.746Z,112.90
2022-12-23T00:21:55.857Z,124.70
2022-12-23T00:27:19.639Z,111.25
2022-12-23T00:32:43.397Z,121.65
2022-12-23T00:38:08.549Z,116.80
2022-12-23T00:43:34.779Z,103.55
2022-12-23T00:49:19.110Z,118.78
2022-12-23T00:54:45.338Z,112.13
2022-12-23T01:00:10.721Z,108.80
2022-12-23T01:05:40.335Z,105.68
2022-12-23T01:11:06.353Z,101.40
2022-12-23T01:16:30.164Z,93.95
2022-12-23T01:21:53.929Z,103.93
2022-12-23T01:27:19.060Z,90.97
2022-12-23T01:32:42.803Z,79.53
2022-12-23T01:38:06.470Z,84.93
2022-12-23T01:43:46.997Z,84.22
2022-12-23T01:49:11.173Z,82.57
2022-12-23T01:54:36.369Z,68.95
2022-12-23T02:00:19.172Z,67.40
2022-12-23T02:05:45.707Z,62.92
2022-12-23T02:11:26.873Z,59.97
2022-12-23T02:17:03.445Z,50.00
2022-12-23T02:22:49.761Z,61.30
2022-12-23T02:28:37.278Z,57.83
2022-12-23T02:34:11.697Z,46.25
2022-12-23T02:39:42.481Z,53.38
2022-12-23T02:45:12.627Z,49.75
2022-12-23T02:50:40.388Z,81.55
2022-12-23T02:56:07.112Z,69.28
2022-12-23T03:01:34.670Z,117.20
2022-12-23T03:07:05.900Z,128.88
2022-12-23T03:12:39.446Z,107.25
2022-12-23T03:23:36.294Z,175.35
2022-12-23T03:29:05.469Z,171.70
2022-12-23T03:34:33.519Z,185.20
2022-12-23T03:40:05.171Z,130.43
2022-12-23T03:45:40.776Z,162.85
2022-12-23T03:51:10.702Z,137.10
2022-12-23T03:56:39.619Z,129.95
2022-12-23T04:02:08.924Z,167.43
2022-12-23T04:07:38.312Z,192.32
2022-12-23T04:13:03.581Z,128.70
2022-12-23T04:18:27.458Z,156.88
2022-12-23T04:23:51.462Z,153.20
2022-12-23T04:29:16.712Z,144.38
2022-12-23T04:34:40.534Z,170.75
2022-12-23T04:40:04.556Z,142.30
2022-12-23T04:51:51.972Z,102.82
2022-12-23T04:57:16.818Z,83.93
2022-12-23T05:02:42.587Z,88.88
2022-12-23T05:08:07.168Z,84.25
2022-12-23T05:13:30.955Z,91.63
2022-12-23T05:18:56.092Z,75.38
2022-12-23T05:24:19.806Z,120.55
2022-12-23T05:29:43.556Z,77.47
2022-12-23T05:35:09.672Z,80.32
2022-12-23T05:40:34.159Z,73.40
2022-12-23T05:45:58.316Z,117.00
2022-12-23T05:51:23.426Z,82.38
2022-12-23T05:56:47.119Z,57.88
2022-12-23T06:02:11.474Z,60.50
2022-12-23T06:07:36.742Z,59.70
2022-12-23T06:13:00.568Z,86.18
2022-12-23T06:18:24.357Z,61.10
2022-12-23T06:23:49.498Z,82.03
2022-12-23T06:29:13.345Z,69.90
2022-12-23T06:34:37.215Z,50.83
2022-12-23T06:40:02.424Z,93.88
2022-12-23T06:45:26.363Z,48.30
2022-12-23T06:50:50.125Z,59.40
2022-12-23T06:56:17.360Z,62.05
2022-12-23T07:01:43.453Z,48.08
2022-12-23T07:07:07.304Z,68.97
2022-12-23T07:12:32.387Z,87.75
2022-12-23T07:17:56.222Z,65.28
2022-12-23T07:23:20.008Z,47.13
2022-12-23T07:28:48.797Z,45.15
2022-12-23T07:34:12.586Z,45.30
2022-12-23T07:39:36.611Z,51.53
2022-12-23T07:45:01.837Z,57.20
2022-12-23T07:50:26.458Z,52.80
2022-12-23T07:55:56.600Z,80.20
2022-12-23T08:01:22.718Z,46.55
2022-12-23T08:06:46.496Z,53.58
2022-12-23T08:12:10.338Z,43.63
2022-12-23T08:17:35.657Z,43.92
2022-12-23T08:22:59.483Z,43.17
2022-12-23T08:28:23.202Z,47.25
2022-12-23T08:33:51.878Z,47.10
2022-12-23T08:39:16.155Z,46.35
2022-12-23T08:44:39.865Z,51.53
2022-12-23T08:50:05.733Z,58.28
2022-12-23T08:55:29.513Z,73.30
2022-12-23T09:00:53.319Z,78.63
2022-12-23T09:06:28.280Z,65.60
2022-12-23T09:11:53.183Z,76.78
2022-12-23T09:17:17.736Z,78.50
2022-12-23T09:22:42.974Z,62.67
2022-12-23T09:28:08.231Z,57.25
2022-12-23T09:33:32.054Z,68.50
2022-12-23T09:38:58.141Z,106.20
2022-12-23T09:44:44.376Z,70.60
2022-12-23T09:50:20.256Z,71.13
2022-12-23T09:55:55.326Z,89.13
2022-12-23T10:01:25.861Z,72.28
2022-12-23T10:06:57.790Z,71.80
2022-12-23T10:12:39.782Z,82.88
2022-12-23T10:18:07.535Z,79.25
2022-12-23T10:23:36.271Z,75.53
2022-12-23T10:29:18.375Z,77.55
2022-12-23T10:34:50.785Z,63.72
2022-12-23T10:45:52.192Z,67.70
2022-12-23T10:51:20.344Z,62.50
2022-12-23T10:56:47.386Z,64.68
2022-12-23T11:02:34.808Z,70.68
2022-12-23T11:07:59.143Z,74.78
2022-12-23T11:13:26.615Z,82.72
2022-12-23T11:19:01.106Z,72.88
2022-12-23T11:24:26.402Z,67.75
2022-12-23T11:29:52.559Z,79.57
2022-12-23T11:35:27.092Z,62.05
2022-12-23T11:40:51.178Z,62.85
2022-12-23T11:46:19.615Z,63.03
2022-12-23T11:51:45.892Z,68.55
2022-12-23T11:57:16.935Z,58.95
2022-12-23T12:02:44.126Z,64.23
2022-12-23T12:08:12.598Z,72.72
2022-12-23T12:13:40.735Z,64.85
2022-12-23T12:19:11.952Z,77.72
2022-12-23T12:24:42.717Z,70.25
2022-12-23T12:30:13.943Z,69.93
2022-12-23T12:35:44.547Z,72.72
2022-12-23T12:41:18.209Z,70.47
2022-12-23T12:46:47.141Z,61.08
2022-12-23T12:52:15.012Z,78.30
2022-12-23T12:57:41.869Z,90.65
2022-12-23T13:03:22.580Z,76.82
2022-12-23T13:08:57.657Z,66.93
2022-12-23T13:14:33.900Z,75.28
2022-12-23T13:20:04.876Z,95.38
2022-12-23T13:25:32.951Z,100.80
2022-12-23T13:31:05.420Z,67.00
2022-12-23T13:36:45.220Z,72.18
2022-12-23T13:42:12.928Z,62.30
2022-12-23T13:47:46.648Z,66.60
2022-12-23T13:53:21.570Z,56.25
2022-12-23T13:58:49.872Z,64.28
2022-12-23T14:04:36.646Z,58.10
2022-12-23T14:10:11.744Z,62.63
2022-12-23T14:16:17.119Z,60.67
2022-12-23T14:21:51.799Z,65.97
2022-12-23T14:27:34.731Z,59.55
2022-12-23T14:32:59.948Z,55.50
2022-12-23T14:38:30.136Z,57.05
2022-12-23T14:43:57.086Z,61.03
2022-12-23T14:49:39.956Z,63.83
2022-12-23T14:55:37.455Z,54.30
2022-12-23T15:01:05.961Z,55.35
2022-12-23T15:06:36.514Z,58.92
2022-12-23T15:12:06.148Z,55.65
2022-12-23T15:17:33.025Z,49.75
2022-12-23T15:23:01.468Z,52.45
2022-12-23T15:28:35.223Z,55.78
2022-12-23T15:34:08.915Z,48.35
2022-12-23T15:39:40.876Z,61.15
2022-12-23T15:45:30.870Z,64.03
2022-12-23T15:50:59.192Z,50.00
2022-12-23T15:56:26.006Z,45.33
2022-12-23T16:01:49.914Z,49.58
2022-12-23T16:07:26.539Z,58.33
2022-12-23T16:12:52.660Z,57.60
2022-12-23T16:18:23.042Z,50.78
2022-12-23T16:23:52.736Z,43.60
2022-12-23T16:29:16.654Z,58.50
2022-12-23T16:34:40.458Z,48.95
2022-12-23T16:40:14.368Z,56.13
2022-12-23T16:45:39.223Z,57.35
2022-12-23T16:51:05.017Z,48.50
2022-12-23T16:56:34.625Z,47.85
2022-12-23T17:02:03.486Z,57.92
2022-12-23T17:07:28.259Z,69.95
2022-12-23T17:12:53.428Z,76.70
2022-12-23T17:18:18.822Z,87.32
2022-12-23T17:23:42.609Z,100.07
2022-12-23T17:29:08.369Z,116.13
2022-12-23T17:34:32.229Z,179.50
2022-12-23T17:39:56.028Z,187.23
2022-12-23T17:45:27.310Z,158.50
2022-12-23T17:50:51.268Z,165.15
2022-12-23T17:56:16.973Z,176.05
2022-12-23T18:01:42.173Z,158.43
2022-12-23T18:07:07.649Z,179.55
2022-12-23T18:12:35.411Z,248.30
2022-12-23T18:18:00.704Z,258.27
2022-12-23T18:23:26.915Z,218.75
2022-12-23T18:28:51.394Z,137.18
2022-12-23T18:34:18.273Z,168.90
2022-12-23T18:39:42.048Z,138.02
2022-12-23T18:45:11.548Z,138.00
2022-12-23T18:50:39.148Z,144.90
2022-12-23T18:56:02.939Z,163.63
2022-12-23T19:01:26.748Z,168.02
2022-12-23T19:06:51.936Z,112.40
2022-12-23T19:12:15.745Z,211.43
2022-12-23T19:17:39.725Z,105.53
2022-12-23T19:23:09.498Z,133.13
2022-12-23T19:28:37.842Z,147.25
2022-12-23T19:34:01.846Z,137.40
2022-12-23T19:39:27.099Z,139.45
2022-12-23T19:44:50.850Z,149.07
2022-12-23T19:50:14.618Z,116.35
2022-12-23T19:55:39.788Z,105.65
2022-12-23T20:01:08.278Z,98.47
2022-12-23T20:06:34.321Z,126.68
2022-12-23T20:11:59.476Z,114.53
2022-12-23T20:17:23.240Z,136.00
2022-12-23T20:22:47.059Z,138.93
2022-12-23T20:28:15.978Z,131.90
2022-12-23T20:33:42.571Z,133.93
2022-12-23T20:39:06.806Z,129.32
2022-12-23T20:44:35.235Z,92.45
2022-12-23T20:50:00.213Z,130.63
2022-12-23T20:55:24.030Z,130.25
2022-12-23T21:00:49.325Z,157.32
2022-12-23T21:06:13.137Z,93.65
2022-12-23T21:11:38.721Z,86.55
2022-12-23T21:17:03.934Z,128.52
2022-12-23T21:22:27.643Z,97.43
2022-12-23T21:27:53.007Z,83.45
2022-12-23T21:33:18.195Z,88.97
2022-12-23T21:38:44.943Z,121.60
2022-12-23T21:44:09.485Z,111.07
2022-12-23T21:49:34.857Z,119.65
2022-12-23T21:54:58.657Z,119.80
2022-12-23T22:00:22.725Z,91.47
2022-12-23T22:05:47.891Z,170.93
2022-12-23T22:11:14.398Z,156.07
2022-12-23T22:16:38.461Z,112.72
2022-12-23T22:22:03.663Z,157.45
2022-12-23T22:27:28.079Z,147.38
2022-12-23T22:32:51.999Z,140.10
2022-12-23T22:38:17.144Z,74.18
2022-12-23T22:43:40.925Z,103.07
2022-12-23T22:49:04.707Z,165.60
2022-12-23T22:54:30.855Z,191.68
2022-12-23T22:59:55.625Z,156.18
2022-12-23T23:05:19.488Z,162.77
2022-12-23T23:10:44.807Z,142.48
2022-12-23T23:16:11.646Z,168.60
2022-12-23T23:21:36.821Z,115.80
2022-12-23T23:27:02.153Z,103.72
2022-12-23T23:32:26.047Z,94.25
2022-12-23T23:37:52.576Z,77.38
2022-12-23T23:43:17.697Z,69.70
2022-12-23T23:48:41.525Z,83.78
2022-12-23T23:54:05.373Z,79.15
2022-12-23T23:59:30.749Z,89.38
